createdAt,value
2018-06-11T00:01:27.674Z,25.40
2018-06-11T00:03:56.659Z,25.07
2018-06-11T00:06:25.658Z,23.57
2018-06-11T00:08:54.552Z,24.60
2018-06-11T00:11:23.533Z,25.53
2018-06-11T00:13:52.631Z,25.17
2018-06-11T00:16:21.481Z,25.40
2018-06-11T00:18:50.433Z,26.77
2018-06-11T00:21:19.096Z,26.23
2018-06-11T00:23:48.008Z,25.20
2018-06-11T00:26:17.248Z,25.60
2018-06-11T00:28:46.186Z,26.27
2018-06-11T00:31:15.414Z,23.57
2018-06-11T00:33:44.276Z,24.67
2018-06-11T00:36:13.162Z,24.60
2018-06-11T00:38:42.397Z,25.07
2018-06-11T00:41:11.490Z,23.20
2018-06-11T00:43:40.571Z,22.97
2018-06-11T00:46:09.444Z,24.40
2018-06-11T00:48:38.354Z,23.93
2018-06-11T00:51:07.022Z,23.40
2018-06-11T00:53:35.833Z,22.47
2018-06-11T00:56:10.384Z,23.37
2018-06-11T00:58:39.534Z,22.97
2018-06-11T01:01:08.629Z,22.93
2018-06-11T01:03:37.518Z,21.77
2018-06-11T01:06:06.360Z,23.00
2018-06-11T01:08:35.303Z,24.30
2018-06-11T01:11:04.259Z,23.67
2018-06-11T01:13:32.925Z,24.20
2018-06-11T01:16:01.462Z,24.97
2018-06-11T01:18:33.427Z,26.23
2018-06-11T01:21:02.461Z,26.67
2018-06-11T01:23:31.290Z,25.07
2018-06-11T01:26:00.225Z,23.60
2018-06-11T01:28:29.059Z,25.70
2018-06-11T01:30:58.014Z,25.83
2018-06-11T01:33:26.753Z,25.80
2018-06-11T01:35:55.605Z,26.37
2018-06-11T01:38:24.660Z,26.37
2018-06-11T01:40:53.493Z,26.67
2018-06-11T01:43:22.281Z,26.43
2018-06-11T01:45:51.226Z,26.60
2018-06-11T01:48:20.184Z,24.77
2018-06-11T01:50:49.023Z,27.23
2018-06-11T01:53:17.903Z,26.40
2018-06-11T01:55:46.871Z,26.57
2018-06-11T01:58:15.787Z,25.50
2018-06-11T02:00:44.789Z,24.30
2018-06-11T02:03:13.567Z,23.93
2018-06-11T02:05:42.611Z,24.53
2018-06-11T02:08:11.554Z,22.77
2018-06-11T02:10:40.348Z,22.67
2018-06-11T02:13:09.286Z,23.73
2018-06-11T02:15:38.234Z,24.27
2018-06-11T02:18:07.324Z,24.97
2018-06-11T02:20:36.165Z,23.33
2018-06-11T02:23:04.887Z,23.50
2018-06-11T02:25:34.137Z,23.13
2018-06-11T02:28:03.765Z,25.47
2018-06-11T02:30:32.634Z,24.97
2018-06-11T02:33:01.627Z,26.37
2018-06-11T02:35:30.077Z,26.47
2018-06-11T02:37:59.115Z,25.83
2018-06-11T02:40:27.909Z,27.03
2018-06-11T02:42:56.620Z,26.80
2018-06-11T02:45:25.690Z,26.50
2018-06-11T02:47:54.884Z,24.73
2018-06-11T02:50:24.253Z,25.70
2018-06-11T02:52:53.030Z,25.00
2018-06-11T02:55:21.871Z,24.47
2018-06-11T02:57:50.781Z,25.37
2018-06-11T03:00:19.633Z,24.80
2018-06-11T03:02:48.682Z,25.20
2018-06-11T03:05:17.209Z,26.43
2018-06-11T03:07:46.086Z,26.57
2018-06-11T03:10:15.372Z,26.33
2018-06-11T03:12:44.145Z,25.70
2018-06-11T03:15:12.918Z,26.80
2018-06-11T03:17:41.687Z,25.93
2018-06-11T03:20:10.331Z,25.20
2018-06-11T03:22:39.148Z,25.10
2018-06-11T03:25:07.889Z,26.50
2018-06-11T03:27:36.674Z,26.80
2018-06-11T03:30:05.483Z,26.93
2018-06-11T03:32:34.259Z,26.97
2018-06-11T03:35:03.043Z,27.53
2018-06-11T03:37:31.773Z,26.40
2018-06-11T03:40:00.533Z,26.57
2018-06-11T03:42:29.546Z,26.07
2018-06-11T03:44:58.224Z,26.87
2018-06-11T03:47:26.967Z,26.77
2018-06-11T03:49:55.780Z,27.50
2018-06-11T03:52:24.482Z,26.70
2018-06-11T03:54:53.456Z,24.60
2018-06-11T03:57:22.252Z,25.67
2018-06-11T03:59:50.977Z,25.07
2018-06-11T04:02:20.127Z,25.73
2018-06-11T04:04:48.867Z,23.73
2018-06-11T04:07:17.786Z,24.43
2018-06-11T04:09:46.687Z,25.60
2018-06-11T04:12:15.525Z,27.10
2018-06-11T04:14:44.273Z,26.83
2018-06-11T04:17:13.017Z,27.47
2018-06-11T04:19:41.746Z,26.00
2018-06-11T04:22:10.663Z,25.97
2018-06-11T04:24:39.473Z,27.17
2018-06-11T04:27:08.192Z,26.33
2018-06-11T04:29:37.066Z,26.57
2018-06-11T04:32:06.017Z,28.13
2018-06-11T04:34:34.812Z,28.00
2018-06-11T04:37:03.602Z,27.03
2018-06-11T04:39:32.322Z,27.20
2018-06-11T04:42:01.154Z,27.60
2018-06-11T04:44:29.894Z,27.43
2018-06-11T04:46:58.785Z,29.77
2018-06-11T04:49:27.786Z,28.60
2018-06-11T04:51:56.657Z,27.90
2018-06-11T04:54:25.648Z,26.83
2018-06-11T04:56:54.451Z,27.67
2018-06-11T04:59:23.311Z,27.70
2018-06-11T05:01:52.078Z,26.83
2018-06-11T05:04:20.887Z,26.67
2018-06-11T05:06:49.593Z,29.43
2018-06-11T05:09:18.363Z,28.53
2018-06-11T05:11:47.844Z,26.87
2018-06-11T05:14:17.145Z,25.25
2018-06-11T05:16:51.146Z,25.63
2018-06-11T05:19:24.757Z,26.67
2018-06-11T05:21:53.479Z,26.27
2018-06-11T05:24:22.266Z,24.43
2018-06-11T05:26:50.963Z,26.80
2018-06-11T05:29:19.680Z,26.50
2018-06-11T05:31:48.141Z,26.40
2018-06-11T05:34:16.866Z,25.87
2018-06-11T05:36:45.689Z,25.20
2018-06-11T05:39:14.510Z,26.77
2018-06-11T05:41:43.256Z,25.90
2018-06-11T05:44:11.942Z,28.23
2018-06-11T05:46:40.844Z,25.70
2018-06-11T05:49:09.580Z,25.70
2018-06-11T05:51:38.329Z,25.67
2018-06-11T05:54:07.097Z,25.93
2018-06-11T05:56:35.781Z,24.77
2018-06-11T05:59:04.690Z,24.67
2018-06-11T06:01:33.376Z,24.10
2018-06-11T06:04:02.122Z,22.80
2018-06-11T06:06:30.852Z,24.37
2018-06-11T06:08:59.576Z,23.67
2018-06-11T06:11:28.284Z,22.53
2018-06-11T06:13:57.816Z,23.50
2018-06-11T06:16:26.567Z,24.00
2018-06-11T06:18:55.316Z,22.90
2018-06-11T06:21:24.096Z,22.60
2018-06-11T06:23:52.802Z,22.77
2018-06-11T06:26:21.546Z,23.37
2018-06-11T06:28:50.336Z,22.90
2018-06-11T06:31:19.048Z,22.77
2018-06-11T06:33:47.789Z,21.80
2018-06-11T06:36:16.514Z,23.47
2018-06-11T06:38:45.246Z,22.37
2018-06-11T06:41:14.022Z,22.53
2018-06-11T06:43:42.758Z,24.67
2018-06-11T06:46:11.550Z,23.93
2018-06-11T06:48:40.346Z,24.60
2018-06-11T06:51:09.280Z,23.13
2018-06-11T06:53:38.052Z,23.30
2018-06-11T06:56:06.807Z,22.33
2018-06-11T06:58:35.958Z,22.50
2018-06-11T07:01:04.781Z,21.23
2018-06-11T07:03:33.552Z,20.80
2018-06-11T07:06:02.358Z,16.83
2018-06-11T07:08:31.139Z,17.40
2018-06-11T07:10:59.767Z,19.73
2018-06-11T07:13:28.432Z,14.80
2018-06-11T07:15:57.183Z,15.80
2018-06-11T07:18:25.826Z,16.07
2018-06-11T07:20:54.767Z,14.97
2018-06-11T07:23:23.466Z,14.10
2018-06-11T07:25:52.154Z,14.83
2018-06-11T07:28:20.944Z,16.50
2018-06-11T07:30:49.709Z,16.27
2018-06-11T07:33:18.396Z,16.37
2018-06-11T07:35:47.204Z,15.77
2018-06-11T07:38:15.939Z,15.60
2018-06-11T07:40:44.596Z,15.50
2018-06-11T07:43:13.279Z,15.93
2018-06-11T07:45:41.994Z,16.27
2018-06-11T07:48:10.764Z,19.33
2018-06-11T07:50:39.456Z,16.87
2018-06-11T07:53:08.161Z,16.27
2018-06-11T07:55:36.924Z,15.57
2018-06-11T07:58:05.675Z,16.40
2018-06-11T08:00:34.352Z,14.50
2018-06-11T08:03:03.083Z,15.23
2018-06-11T08:05:31.780Z,15.57
2018-06-11T08:08:00.554Z,15.40
2018-06-11T08:10:29.279Z,17.90
2018-06-11T08:12:58.064Z,16.27
2018-06-11T08:15:26.864Z,16.90
2018-06-11T08:17:55.550Z,17.43
2018-06-11T08:20:24.335Z,17.23
2018-06-11T08:22:53.111Z,18.10
2018-06-11T08:25:21.810Z,16.57
2018-06-11T08:27:50.587Z,18.20
2018-06-11T08:30:19.460Z,18.27
2018-06-11T08:32:48.280Z,18.13
2018-06-11T08:35:17.203Z,18.77
2018-06-11T08:37:45.940Z,17.43
2018-06-11T08:40:14.893Z,16.97
2018-06-11T08:42:43.677Z,16.10
2018-06-11T08:45:12.661Z,18.23
2018-06-11T08:47:41.817Z,19.63
2018-06-11T08:50:12.106Z,18.40
2018-06-11T08:52:41.338Z,17.60
2018-06-11T08:55:10.086Z,17.13
2018-06-11T08:57:38.949Z,19.07
2018-06-11T09:00:08.215Z,19.90
2018-06-11T09:02:37.314Z,16.03
2018-06-11T09:05:06.271Z,17.53
2018-06-11T09:07:34.990Z,17.07
2018-06-11T09:10:04.332Z,16.63
2018-06-11T09:12:32.807Z,17.60
2018-06-11T09:15:01.648Z,16.70
2018-06-11T09:17:30.557Z,15.57
2018-06-11T09:19:59.198Z,15.30
2018-06-11T09:22:27.923Z,16.47
2018-06-11T09:24:56.770Z,16.50
2018-06-11T09:27:25.556Z,17.40
2018-06-11T09:29:54.341Z,17.17
2018-06-11T09:32:23.122Z,17.97
2018-06-11T09:34:51.904Z,18.67
2018-06-11T09:37:20.732Z,19.50
2018-06-11T09:39:49.449Z,18.83
2018-06-11T09:42:18.239Z,19.43
2018-06-11T09:44:46.973Z,20.37
2018-06-11T09:47:15.727Z,20.00
2018-06-11T09:49:44.870Z,19.37
2018-06-11T09:52:13.688Z,18.50
2018-06-11T09:54:42.463Z,19.43
2018-06-11T09:57:10.833Z,19.10
2018-06-11T09:59:39.547Z,18.17
2018-06-11T10:02:08.321Z,18.50
2018-06-11T10:04:37.028Z,18.60
2018-06-11T10:07:05.850Z,17.73
2018-06-11T10:09:34.695Z,19.97
2018-06-11T10:12:03.453Z,21.50
2018-06-11T10:14:32.392Z,19.80
2018-06-11T10:17:01.086Z,16.90
2018-06-11T10:19:29.980Z,19.90
2018-06-11T10:21:58.775Z,20.53
2018-06-11T10:24:27.568Z,21.03
2018-06-11T10:26:56.293Z,17.73
2018-06-11T10:29:24.984Z,18.27
2018-06-11T10:31:53.749Z,18.80
2018-06-11T10:34:22.480Z,18.90
2018-06-11T10:36:51.249Z,18.33
2018-06-11T10:39:20.132Z,19.37
2018-06-11T10:41:48.818Z,20.43
2018-06-11T10:44:17.535Z,20.50
2018-06-11T10:46:46.383Z,21.03
2018-06-11T10:49:15.124Z,20.73
2018-06-11T10:51:43.989Z,21.23
2018-06-11T10:54:13.701Z,21.80
2018-06-11T10:56:42.399Z,20.57
2018-06-11T10:59:11.035Z,18.77
2018-06-11T11:01:39.996Z,16.40
2018-06-11T11:04:08.887Z,15.93
2018-06-11T11:06:37.692Z,19.50
2018-06-11T11:09:07.387Z,19.57
2018-06-11T11:11:36.404Z,19.53
2018-06-11T11:14:05.373Z,20.40
2018-06-11T11:16:34.258Z,18.83
2018-06-11T11:19:03.053Z,22.00
2018-06-11T11:21:31.778Z,21.67
2018-06-11T11:24:00.887Z,19.80
2018-06-11T11:26:29.625Z,20.27
2018-06-11T11:28:58.518Z,17.77
2018-06-11T11:31:27.611Z,18.23
2018-06-11T11:33:56.553Z,19.40
2018-06-11T11:36:25.396Z,17.87
2018-06-11T11:38:54.287Z,16.97
2018-06-11T11:41:23.265Z,17.93
2018-06-11T11:43:52.293Z,19.33
2018-06-11T11:46:21.271Z,17.30
2018-06-11T11:48:50.094Z,19.57
2018-06-11T11:51:19.036Z,20.50
2018-06-11T11:53:47.738Z,19.87
2018-06-11T11:56:16.382Z,20.10
2018-06-11T11:58:45.081Z,19.17
2018-06-11T12:01:13.753Z,19.70
2018-06-11T12:03:42.548Z,16.23
2018-06-11T12:06:11.352Z,18.33
2018-06-11T12:08:40.119Z,20.30
2018-06-11T12:11:09.077Z,23.13
2018-06-11T12:13:37.775Z,19.33
2018-06-11T12:16:06.615Z,22.53
2018-06-11T12:18:35.410Z,19.50
2018-06-11T12:21:04.105Z,20.10
2018-06-11T12:23:32.852Z,20.47
2018-06-11T12:26:01.626Z,20.03
2018-06-11T12:28:30.308Z,17.80
2018-06-11T12:30:59.016Z,20.87
2018-06-11T12:33:27.738Z,21.60
2018-06-11T12:35:56.574Z,20.00
2018-06-11T12:38:25.267Z,21.57
2018-06-11T12:40:54.052Z,18.30
2018-06-11T12:43:22.804Z,17.47
2018-06-11T12:45:51.556Z,18.80
2018-06-11T12:48:20.304Z,19.77
2018-06-11T12:50:49.170Z,19.10
2018-06-11T12:53:18.090Z,19.63
2018-06-11T12:55:47.091Z,17.67
2018-06-11T12:58:15.970Z,18.47
2018-06-11T13:00:44.768Z,18.50
2018-06-11T13:03:13.573Z,19.57
2018-06-11T13:05:45.133Z,18.10
2018-06-11T13:08:13.813Z,19.40
2018-06-11T13:10:42.664Z,19.63
2018-06-11T13:13:11.383Z,21.47
2018-06-11T13:15:40.084Z,19.33
2018-06-11T13:18:08.909Z,20.33
2018-06-11T13:20:37.635Z,20.70
2018-06-11T13:23:06.520Z,20.27
2018-06-11T13:25:35.406Z,17.85
2018-06-11T13:28:05.709Z,19.90
2018-06-11T13:30:34.620Z,20.63
2018-06-11T13:33:03.319Z,20.80
2018-06-11T13:35:31.997Z,20.17
2018-06-11T13:38:00.750Z,21.33
2018-06-11T13:40:29.508Z,18.80
2018-06-11T13:42:58.229Z,23.20
2018-06-11T13:45:26.997Z,22.20
2018-06-11T13:47:55.912Z,23.47
2018-06-11T13:50:24.586Z,20.70
2018-06-11T13:52:53.315Z,21.13
2018-06-11T13:55:22.096Z,20.65
2018-06-11T13:57:50.781Z,18.63
2018-06-11T14:00:19.571Z,18.87
2018-06-11T14:02:48.583Z,22.00
2018-06-11T14:05:17.383Z,21.62
2018-06-11T14:07:46.109Z,22.93
2018-06-11T14:10:14.881Z,21.25
2018-06-11T14:12:43.614Z,19.42
2018-06-11T14:15:12.337Z,18.13
2018-06-11T14:17:41.073Z,20.10
2018-06-11T14:20:09.893Z,21.93
2018-06-11T14:22:38.611Z,20.90
2018-06-11T14:25:08.478Z,20.40
2018-06-11T14:27:38.091Z,21.57
2018-06-11T14:30:07.853Z,22.02
2018-06-11T14:32:36.637Z,22.50
2018-06-11T14:35:05.372Z,22.45
2018-06-11T14:37:34.193Z,21.87
2018-06-11T14:40:02.972Z,21.10
2018-06-11T14:42:31.721Z,21.70
2018-06-11T14:45:02.083Z,21.93
2018-06-11T14:47:30.808Z,21.87
2018-06-11T14:50:06.260Z,20.97
2018-06-11T14:52:41.959Z,20.80
2018-06-11T14:55:11.868Z,22.13
2018-06-11T14:57:40.668Z,20.63
2018-06-11T15:00:17.528Z,20.93
2018-06-11T15:02:47.233Z,21.80
2018-06-11T15:05:16.566Z,18.83
2018-06-11T15:07:45.503Z,19.80
2018-06-11T15:10:14.356Z,19.93
2018-06-11T15:12:45.004Z,19.00
2018-06-11T15:15:18.685Z,18.92
2018-06-11T15:17:48.542Z,18.60
2018-06-11T15:20:17.734Z,18.40
2018-06-11T15:22:47.277Z,17.33
2018-06-11T15:25:16.076Z,17.80
2018-06-11T15:27:44.881Z,17.45
2018-06-11T15:30:13.846Z,17.87
2018-06-11T15:32:42.946Z,17.37
2018-06-11T15:35:12.716Z,17.13
2018-06-11T15:37:41.436Z,17.73
2018-06-11T15:40:12.766Z,16.40
2018-06-11T15:42:43.895Z,16.23
2018-06-11T15:45:16.160Z,16.37
2018-06-11T15:47:45.083Z,17.20
2018-06-11T15:50:14.818Z,15.93
2018-06-11T15:52:43.797Z,15.43
2018-06-11T15:55:12.612Z,15.67
2018-06-11T15:57:41.613Z,15.72
2018-06-11T16:00:10.571Z,15.67
2018-06-11T16:02:39.534Z,15.53
2018-06-11T16:05:08.645Z,15.50
2018-06-11T16:07:37.486Z,14.80
2018-06-11T16:10:06.270Z,15.37
2018-06-11T16:12:35.409Z,15.50
2018-06-11T16:15:04.238Z,15.47
2018-06-11T16:17:33.221Z,14.70
2018-06-11T16:20:02.053Z,15.67
2018-06-11T16:22:30.773Z,13.75
2018-06-11T16:24:59.790Z,13.57
2018-06-11T16:27:28.447Z,13.30
2018-06-11T16:29:57.211Z,13.43
2018-06-11T16:32:25.958Z,12.33
2018-06-11T16:34:54.718Z,11.20
2018-06-11T16:37:23.574Z,13.13
2018-06-11T16:39:52.294Z,11.73
2018-06-11T16:42:21.184Z,12.35
2018-06-11T16:44:49.977Z,11.67
2018-06-11T16:47:18.775Z,12.80
2018-06-11T16:49:48.393Z,11.20
2018-06-11T16:52:17.146Z,11.40
2018-06-11T16:54:45.929Z,11.00
2018-06-11T16:57:14.561Z,11.75
2018-06-11T16:59:43.595Z,11.63
2018-06-11T17:02:12.236Z,11.03
2018-06-11T17:04:40.877Z,11.00
2018-06-11T17:07:09.701Z,11.63
2018-06-11T17:09:38.350Z,11.68
2018-06-11T17:12:07.085Z,11.07
2018-06-11T17:14:35.875Z,10.97
2018-06-11T17:17:04.810Z,9.60
2018-06-11T17:19:33.550Z,10.40
2018-06-11T17:22:02.493Z,11.13
2018-06-11T17:24:31.196Z,10.72
2018-06-11T17:27:00.131Z,10.38
2018-06-11T17:29:28.902Z,10.87
2018-06-11T17:31:57.666Z,10.27
2018-06-11T17:34:26.356Z,10.40
2018-06-11T17:36:55.111Z,11.93
2018-06-11T17:39:23.956Z,11.67
2018-06-11T17:41:52.787Z,11.63
2018-06-11T17:44:21.750Z,11.27
2018-06-11T17:46:50.642Z,11.73
2018-06-11T17:49:19.464Z,11.27
2018-06-11T17:51:48.179Z,12.00
2018-06-11T17:54:16.929Z,10.90
2018-06-11T17:56:45.676Z,11.90
2018-06-11T17:59:14.441Z,11.63
2018-06-11T18:01:43.372Z,11.03
2018-06-11T18:04:12.219Z,11.83
2018-06-11T18:06:40.920Z,14.53
2018-06-11T18:09:10.337Z,12.30
2018-06-11T18:11:39.014Z,11.17
2018-06-11T18:14:07.708Z,11.63
2018-06-11T18:16:36.515Z,11.33
2018-06-11T18:19:05.226Z,11.93
2018-06-11T18:21:33.915Z,11.47
2018-06-11T18:24:02.735Z,11.77
2018-06-11T18:26:31.544Z,10.73
2018-06-11T18:29:00.496Z,10.97
2018-06-11T18:31:29.253Z,10.58
2018-06-11T18:33:58.259Z,10.50
2018-06-11T18:36:27.048Z,12.33
2018-06-11T18:38:55.725Z,10.77
2018-06-11T18:41:24.393Z,13.70
2018-06-11T18:43:53.397Z,10.70
2018-06-11T18:46:22.243Z,10.90
2018-06-11T18:48:51.113Z,11.97
2018-06-11T18:51:19.984Z,10.33
2018-06-11T18:53:48.743Z,9.30
2018-06-11T18:56:17.672Z,9.70
2018-06-11T18:58:46.865Z,9.90
2018-06-11T19:01:15.840Z,9.47
2018-06-11T19:03:44.669Z,8.73
2018-06-11T19:06:13.529Z,10.20
2018-06-11T19:08:42.240Z,9.90
2018-06-11T19:11:10.931Z,9.67
2018-06-11T19:13:39.719Z,9.60
2018-06-11T19:16:08.429Z,10.03
2018-06-11T19:18:37.253Z,11.33
2018-06-11T19:21:06.114Z,11.73
2018-06-11T19:23:34.763Z,11.10
2018-06-11T19:26:03.501Z,10.10
2018-06-11T19:28:32.194Z,11.27
2018-06-11T19:31:01.106Z,10.80
2018-06-11T19:33:30.044Z,11.40
2018-06-11T19:35:59.000Z,10.83
2018-06-11T19:38:28.031Z,11.13
2018-06-11T19:40:56.779Z,12.23
2018-06-11T19:43:29.217Z,11.80
2018-06-11T19:45:58.042Z,11.90
2018-06-11T19:48:26.773Z,11.17
2018-06-11T19:50:55.644Z,11.50
2018-06-11T19:53:24.713Z,12.33
2018-06-11T19:55:53.474Z,13.20
2018-06-11T19:58:22.211Z,11.57
2018-06-11T20:00:51.282Z,12.20
2018-06-11T20:03:20.026Z,12.67
2018-06-11T20:05:48.811Z,12.00
2018-06-11T20:08:17.592Z,11.93
2018-06-11T20:10:46.377Z,11.73
2018-06-11T20:13:15.212Z,11.97
2018-06-11T20:15:45.028Z,11.17
2018-06-11T20:18:14.343Z,12.07
2018-06-11T20:20:43.137Z,11.10
2018-06-11T20:23:11.929Z,11.93
2018-06-11T20:25:40.801Z,12.77
2018-06-11T20:28:09.509Z,12.00
2018-06-11T20:30:38.270Z,11.53
2018-06-11T20:33:07.009Z,11.70
2018-06-11T20:35:35.772Z,11.43
2018-06-11T20:38:04.753Z,12.37
2018-06-11T20:40:33.429Z,12.00
2018-06-11T20:43:02.327Z,12.73
2018-06-11T20:45:31.445Z,12.23
2018-06-11T20:48:00.231Z,12.67
2018-06-11T20:50:29.155Z,13.53
2018-06-11T20:52:57.736Z,11.83
2018-06-11T20:55:27.500Z,12.93
2018-06-11T20:57:56.378Z,13.03
2018-06-11T21:00:25.300Z,12.07
2018-06-11T21:02:54.278Z,12.37
2018-06-11T21:05:22.991Z,13.80
2018-06-11T21:07:52.688Z,13.53
2018-06-11T21:10:21.606Z,14.27
2018-06-11T21:12:50.661Z,14.23
2018-06-11T21:15:19.585Z,13.30
2018-06-11T21:17:48.444Z,15.17
2018-06-11T21:20:17.088Z,13.73
2018-06-11T21:22:46.031Z,12.50
2018-06-11T21:25:14.774Z,13.97
2018-06-11T21:27:43.504Z,13.60
2018-06-11T21:30:12.199Z,13.37
2018-06-11T21:32:40.901Z,13.33
2018-06-11T21:35:09.866Z,14.07
2018-06-11T21:37:38.727Z,14.90
2018-06-11T21:40:07.523Z,13.67
2018-06-11T21:42:36.607Z,14.83
2018-06-11T21:45:05.532Z,15.70
2018-06-11T21:47:34.558Z,13.67
2018-06-11T21:50:03.519Z,13.83
2018-06-11T21:52:32.519Z,15.23
2018-06-11T21:55:01.400Z,14.43
2018-06-11T21:57:30.499Z,14.10
2018-06-11T21:59:59.296Z,13.43
2018-06-11T22:02:28.056Z,14.00
2018-06-11T22:04:56.866Z,15.23
2018-06-11T22:07:25.706Z,15.50
2018-06-11T22:09:54.542Z,15.70
2018-06-11T22:12:23.541Z,14.33
2018-06-11T22:14:52.244Z,15.20
2018-06-11T22:17:21.148Z,15.63
2018-06-11T22:19:50.109Z,14.53
2018-06-11T22:22:18.809Z,15.43
2018-06-11T22:24:47.583Z,15.77
2018-06-11T22:27:16.537Z,15.20
2018-06-11T22:29:45.366Z,15.77
2018-06-11T22:32:14.498Z,15.40
2018-06-11T22:34:43.190Z,15.93
2018-06-11T22:37:12.138Z,15.97
2018-06-11T22:39:41.050Z,16.43
2018-06-11T22:42:09.900Z,16.07
2018-06-11T22:44:38.721Z,16.63
2018-06-11T22:47:07.709Z,17.13
2018-06-11T22:49:36.643Z,16.73
2018-06-11T22:52:05.248Z,17.97
2018-06-11T22:54:34.008Z,18.50
2018-06-11T22:57:03.001Z,17.43
2018-06-11T22:59:31.868Z,16.53
2018-06-11T23:02:00.644Z,16.77
2018-06-11T23:04:29.535Z,17.60
2018-06-11T23:06:58.528Z,16.50
2018-06-11T23:09:27.459Z,16.00
2018-06-11T23:11:56.241Z,16.57
2018-06-11T23:14:25.102Z,15.70
2018-06-11T23:16:53.955Z,14.63
2018-06-11T23:19:22.817Z,14.97
2018-06-11T23:21:51.621Z,14.43
2018-06-11T23:24:20.205Z,15.10
2018-06-11T23:26:48.959Z,13.73
2018-06-11T23:29:17.696Z,13.50
2018-06-11T23:31:46.339Z,13.13
2018-06-11T23:34:15.307Z,12.83
2018-06-11T23:36:44.362Z,13.00
2018-06-11T23:39:13.503Z,12.83
2018-06-11T23:41:42.371Z,11.93
2018-06-11T23:44:11.231Z,12.33
2018-06-11T23:46:40.070Z,12.03
2018-06-11T23:49:08.748Z,12.03
2018-06-11T23:51:37.520Z,12.80
2018-06-11T23:54:06.467Z,12.20
2018-06-11T23:56:35.371Z,12.53
2018-06-11T23:59:04.262Z,12.40
